Time;durP1;ratioP1;P1;durP2;ratioP2;P2;SDS_P1;SDS_P2;PMS_P1;PMS_P2;Temp;Humidity;BMP_temperature;BMP_pressure;BME280_temperature;BME280_humidity;BME280_pressure;Samples;Min_cycle;Max_cycle;Signal;HPM_P1;HPM_P2
2024/01/23 00:00:28;;;;;;;12.20;3.10;;;6.90;99.90;;;;;;5111557;28;20169;-73
2024/01/23 00:02:53;;;;;;;10.35;3.05;;;6.90;99.90;;;;;;5111515;28;20079;-73
2024/01/23 00:05:19;;;;;;;13.85;3.53;;;6.90;99.90;;;;;;5094097;28;20122;-73
2024/01/23 00:07:45;;;;;;;20.70;2.90;;;7.00;99.90;;;;;;5111043;28;20043;-73
2024/01/23 00:10:10;;;;;;;13.65;2.97;;;6.90;99.90;;;;;;5111002;28;20039;-73
2024/01/23 00:12:36;;;;;;;18.90;3.80;;;6.90;99.90;;;;;;5112239;28;20027;-73
2024/01/23 00:15:03;;;;;;;12.25;3.15;;;6.90;99.90;;;;;;5110870;28;20566;-73
2024/01/23 00:17:29;;;;;;;20.73;3.75;;;6.80;99.90;;;;;;5110864;28;20082;-72
2024/01/23 00:19:54;;;;;;;13.95;3.13;;;6.90;99.90;;;;;;5110777;28;20067;-73
2024/01/23 00:22:20;;;;;;;15.35;3.58;;;6.90;99.90;;;;;;5110859;28;20043;-74
2024/01/23 00:24:46;;;;;;;14.30;2.88;;;6.90;99.90;;;;;;5110851;28;20423;-73
2024/01/23 00:27:12;;;;;;;16.60;2.97;;;6.80;99.90;;;;;;5110688;28;20513;-73
2024/01/23 00:29:37;;;;;;;30.65;4.90;;;6.80;99.90;;;;;;5110641;28;20403;-73
2024/01/23 00:32:04;;;;;;;22.13;3.00;;;6.80;99.90;;;;;;5110714;28;20452;-73
2024/01/23 00:34:30;;;;;;;13.02;3.25;;;6.80;99.90;;;;;;5111957;28;20502;-73
2024/01/23 00:36:56;;;;;;;22.48;3.70;;;6.70;99.90;;;;;;5110550;28;20036;-73
2024/01/23 00:39:23;;;;;;;9.60;2.65;;;6.70;99.90;;;;;;5110537;28;20114;-74
2024/01/23 00:41:49;;;;;;;13.32;3.17;;;6.70;99.90;;;;;;5110695;28;20036;-73
2024/01/23 00:44:14;;;;;;;16.10;2.80;;;6.70;99.90;;;;;;5110594;28;20040;-73
2024/01/23 00:46:40;;;;;;;19.75;3.75;;;6.70;99.90;;;;;;5112004;28;20063;-73
2024/01/23 00:49:06;;;;;;;21.45;3.08;;;6.70;99.90;;;;;;5110184;28;20040;-73
2024/01/23 00:51:32;;;;;;;14.88;3.03;;;6.80;99.90;;;;;;5110592;28;20414;-73
2024/01/23 00:53:58;;;;;;;15.13;4.25;;;6.80;99.90;;;;;;5093492;28;20494;-74
2024/01/23 00:56:24;;;;;;;15.70;3.33;;;6.80;99.90;;;;;;5111652;28;20089;-73
2024/01/23 00:58:49;;;;;;;17.25;4.38;;;6.80;99.90;;;;;;5093261;28;20036;-74
2024/01/23 01:01:15;;;;;;;16.77;3.97;;;6.80;99.90;;;;;;5110761;28;20070;-74
2024/01/23 01:03:40;;;;;;;19.33;3.65;;;6.80;99.90;;;;;;5111719;28;20111;-74
2024/01/23 01:06:06;;;;;;;14.52;3.05;;;6.70;99.90;;;;;;5093548;28;20043;-74
2024/01/23 01:08:31;;;;;;;15.57;3.70;;;6.60;99.90;;;;;;5110455;28;20065;-74
2024/01/23 01:10:57;;;;;;;25.13;3.88;;;6.70;99.90;;;;;;5111631;28;20035;-73
2024/01/23 01:13:23;;;;;;;15.95;3.25;;;6.80;99.90;;;;;;5110570;28;20062;-73
2024/01/23 01:15:49;;;;;;;17.98;4.40;;;6.80;99.90;;;;;;5114332;28;20039;-73
2024/01/23 01:18:15;;;;;;;15.23;3.30;;;6.80;99.90;;;;;;5114321;28;20036;-73
2024/01/23 01:20:40;;;;;;;18.17;3.20;;;6.70;99.90;;;;;;5114187;28;20047;-74
2024/01/23 01:23:06;;;;;;;17.50;2.85;;;6.80;99.90;;;;;;5114274;28;20031;-73
2024/01/23 01:25:33;;;;;;;23.60;3.03;;;6.80;99.90;;;;;;5114059;28;20042;-74
2024/01/23 01:27:59;;;;;;;23.17;4.32;;;6.80;99.90;;;;;;5114117;28;20069;-74
2024/01/23 01:30:28;;;;;;;18.63;4.35;;;6.80;99.90;;;;;;5115399;28;20046;-74
2024/01/23 01:32:54;;;;;;;16.25;3.72;;;6.70;99.90;;;;;;5115492;28;20120;-73
2024/01/23 01:35:20;;;;;;;21.70;4.68;;;6.70;99.90;;;;;;5113822;28;20059;-73
2024/01/23 01:37:45;;;;;;;11.73;2.83;;;6.70;99.90;;;;;;5115258;28;20039;-74
2024/01/23 01:40:13;;;;;;;20.25;3.55;;;6.60;99.90;;;;;;5113755;28;20521;-74
2024/01/23 01:42:40;;;;;;;15.65;4.35;;;6.60;99.90;;;;;;5097136;28;20040;-74
2024/01/23 01:45:08;;;;;;;23.23;5.28;;;6.60;99.90;;;;;;5113711;28;20040;-73
2024/01/23 01:47:34;;;;;;;11.30;3.70;;;6.60;99.90;;;;;;5114945;28;20055;-73
2024/01/23 01:49:59;;;;;;;21.40;4.05;;;6.70;99.90;;;;;;5114917;28;20059;-73
2024/01/23 01:52:25;;;;;;;14.80;3.60;;;6.50;99.90;;;;;;5113749;28;20096;-73
2024/01/23 01:54:51;;;;;;;23.35;4.47;;;6.60;99.90;;;;;;5113709;28;20032;-73
2024/01/23 01:57:19;;;;;;;16.75;4.82;;;6.50;99.90;;;;;;5113047;28;20036;-74
2024/01/23 01:59:44;;;;;;;15.43;2.78;;;6.50;99.90;;;;;;5096337;28;20157;-73
2024/01/23 02:02:12;;;;;;;19.70;3.40;;;6.50;99.90;;;;;;5113534;28;20118;-73
2024/01/23 02:04:38;;;;;;;14.60;3.08;;;6.40;99.90;;;;;;5096211;28;20110;-74
2024/01/23 02:07:04;;;;;;;12.98;3.22;;;6.50;99.90;;;;;;5113270;28;20172;-74
2024/01/23 02:09:30;;;;;;;14.50;3.33;;;6.40;99.90;;;;;;5113221;28;20383;-73
2024/01/23 02:12:00;;;;;;;11.10;3.17;;;6.40;99.90;;;;;;5114827;28;20108;-73
2024/01/23 02:14:27;;;;;;;14.00;3.90;;;6.40;99.90;;;;;;5114419;28;20634;-74
2024/01/23 02:16:53;;;;;;;18.50;3.28;;;6.30;99.90;;;;;;5114396;28;20039;-73
2024/01/23 02:19:18;;;;;;;22.60;5.00;;;6.40;99.90;;;;;;5113062;28;20035;-73
2024/01/23 02:21:44;;;;;;;22.02;4.43;;;6.40;99.90;;;;;;5113049;28;20043;-73
2024/01/23 02:24:10;;;;;;;19.98;4.85;;;6.40;99.90;;;;;;5113233;28;20043;-74
2024/01/23 02:26:35;;;;;;;19.85;3.47;;;6.30;99.90;;;;;;5111938;28;20518;-74
2024/01/23 02:29:01;;;;;;;13.65;3.80;;;6.50;99.90;;;;;;5114170;28;20032;-73
2024/01/23 02:31:26;;;;;;;13.70;3.03;;;6.40;99.90;;;;;;5113199;28;20126;-74
2024/01/23 02:33:52;;;;;;;21.10;3.50;;;6.30;99.90;;;;;;5096147;28;20039;-74
2024/01/23 02:36:18;;;;;;;14.43;3.45;;;6.50;99.90;;;;;;5095728;28;20648;-74
2024/01/23 02:38:43;;;;;;;17.10;3.78;;;6.50;99.90;;;;;;5095856;28;20453;-74
2024/01/23 02:41:10;;;;;;;18.80;4.00;;;6.40;99.90;;;;;;5112800;28;20043;-74
2024/01/23 02:43:38;;;;;;;16.17;3.75;;;6.50;99.90;;;;;;5112886;28;20035;-74
2024/01/23 02:46:04;;;;;;;19.13;4.30;;;6.50;99.90;;;;;;5112599;28;20495;-74
2024/01/23 02:48:45;;;;;;;22.52;4.05;;;6.50;99.90;;;;;;5112342;28;20035;-73
2024/01/23 02:51:17;;;;;;;19.63;3.47;;;6.50;99.90;;;;;;5112676;28;20035;-73
2024/01/23 02:53:43;;;;;;;19.00;4.55;;;6.60;99.90;;;;;;5112481;28;20063;-73
2024/01/23 02:56:09;;;;;;;25.63;5.07;;;6.70;99.90;;;;;;5112367;28;20043;-73
2024/01/23 02:58:34;;;;;;;24.02;4.18;;;6.70;99.90;;;;;;5112140;28;20092;-74
2024/01/23 03:01:00;;;;;;;12.63;3.30;;;6.70;99.90;;;;;;5113697;28;20035;-74
2024/01/23 03:03:25;;;;;;;12.93;3.85;;;6.70;99.90;;;;;;5113362;28;20376;-73
2024/01/23 03:05:51;;;;;;;19.70;3.33;;;6.70;99.90;;;;;;5113539;28;20039;-73
2024/01/23 03:08:16;;;;;;;24.15;5.38;;;6.80;99.90;;;;;;5095136;28;20144;-74
2024/01/23 03:10:42;;;;;;;23.08;4.50;;;6.80;99.90;;;;;;5112334;28;20032;-74
2024/01/23 03:13:08;;;;;;;20.08;4.00;;;6.90;99.90;;;;;;5112321;28;20079;-74
2024/01/23 03:15:33;;;;;;;19.35;3.72;;;6.80;99.90;;;;;;5095006;28;20506;-73
2024/01/23 03:18:00;;;;;;;13.65;3.65;;;6.80;99.90;;;;;;5111954;28;20138;-73
2024/01/23 03:20:29;;;;;;;24.83;4.00;;;6.80;99.90;;;;;;5113035;28;20039;-74
2024/01/23 03:22:55;;;;;;;16.80;3.75;;;6.80;99.90;;;;;;5111952;28;20084;-74
2024/01/23 03:25:20;;;;;;;22.20;4.95;;;6.90;99.90;;;;;;5112080;28;20406;-74
2024/01/23 03:27:46;;;;;;;24.27;5.22;;;6.80;99.90;;;;;;5111708;28;20071;-74
2024/01/23 03:30:30;;;;;;;24.92;5.10;;;6.90;99.90;;;;;;5111631;28;20454;-74
2024/01/23 03:32:56;;;;;;;;;;;6.80;99.90;;;;;;5095541;28;20478;-74
2024/01/23 03:35:22;;;;;;;21.90;4.78;;;6.90;99.90;;;;;;5094618;28;19916;-73
2024/01/23 03:37:47;;;;;;;18.63;5.35;;;6.90;99.90;;;;;;5094161;28;20097;-74
2024/01/23 03:40:13;;;;;;;19.15;4.47;;;6.80;99.90;;;;;;5111505;28;20065;-74
2024/01/23 03:42:39;;;;;;;17.88;4.10;;;6.90;99.90;;;;;;5111793;28;20032;-74
2024/01/23 03:45:05;;;;;;;25.98;4.75;;;6.80;99.90;;;;;;5111346;28;20086;-74
2024/01/23 03:47:31;;;;;;;21.35;3.45;;;6.80;99.90;;;;;;5111391;28;20039;-73
2024/01/23 03:49:56;;;;;;;29.17;5.25;;;6.90;99.90;;;;;;5111247;28;20040;-73
2024/01/23 03:52:22;;;;;;;19.70;4.03;;;6.90;99.90;;;;;;5112594;28;20047;-73
2024/01/23 03:54:49;;;;;;;28.70;4.28;;;6.90;99.90;;;;;;5099669;28;20035;-74
2024/01/23 03:57:15;;;;;;;18.60;4.90;;;6.90;99.90;;;;;;5102897;28;20039;-74
2024/01/23 03:59:44;;;;;;;18.73;3.80;;;6.90;99.90;;;;;;5111032;28;20536;-74
2024/01/23 04:02:10;;;;;;;23.40;4.78;;;6.90;99.90;;;;;;5100003;28;20109;-74
2024/01/23 04:04:36;;;;;;;17.45;4.30;;;6.90;99.90;;;;;;5119798;22;20049;-76
2024/01/23 04:07:02;;;;;;;26.60;4.85;;;6.90;99.90;;;;;;5053818;28;20658;-76
2024/01/23 04:09:28;;;;;;;22.17;4.05;;;6.90;99.90;;;;;;5053164;28;20093;-75
2024/01/23 04:11:54;;;;;;;27.85;5.55;;;6.90;99.90;;;;;;5053617;28;20046;-76
2024/01/23 04:14:20;;;;;;;19.77;4.80;;;7.00;99.90;;;;;;5053730;28;20040;-76
2024/01/23 04:16:46;;;;;;;21.20;5.35;;;7.00;99.90;;;;;;5070248;28;20066;-75
2024/01/23 04:19:12;;;;;;;19.67;3.75;;;7.00;99.90;;;;;;5070440;28;20484;-75
2024/01/23 04:21:37;;;;;;;27.08;5.22;;;7.00;99.90;;;;;;5070338;28;20044;-76
2024/01/23 04:24:03;;;;;;;22.67;6.40;;;7.00;99.90;;;;;;5071667;28;20072;-76
2024/01/23 04:26:29;;;;;;;20.65;3.90;;;7.10;99.90;;;;;;5070208;28;20045;-75
2024/01/23 04:28:55;;;;;;;19.77;4.88;;;7.10;99.90;;;;;;5053424;28;20063;-76
2024/01/23 04:31:21;;;;;;;22.98;3.95;;;7.20;99.90;;;;;;5070183;28;20040;-76
2024/01/23 04:33:47;;;;;;;23.52;5.78;;;7.30;99.90;;;;;;5070576;28;20123;-76
2024/01/23 04:36:13;;;;;;;30.15;4.93;;;7.20;99.90;;;;;;5071246;28;20516;-77
2024/01/23 04:38:38;;;;;;;26.67;4.35;;;7.20;99.90;;;;;;5071280;28;20040;-75
2024/01/23 04:41:04;;;;;;;16.90;4.65;;;7.20;99.90;;;;;;5070195;28;20046;-75
2024/01/23 04:43:30;;;;;;;28.13;6.65;;;7.30;99.90;;;;;;5070225;28;20032;-75
2024/01/23 04:45:56;;;;;;;22.73;5.20;;;7.20;99.90;;;;;;5071298;28;20090;-75
2024/01/23 04:48:21;;;;;;;27.48;5.57;;;7.20;99.90;;;;;;5070039;28;20044;-75
2024/01/23 04:50:47;;;;;;;23.45;4.63;;;7.30;99.90;;;;;;5072741;28;20120;-75
2024/01/23 04:53:12;;;;;;;26.65;5.32;;;7.30;99.90;;;;;;5074271;28;20032;-75
2024/01/23 04:55:38;;;;;;;18.38;5.00;;;7.30;99.90;;;;;;5073970;28;20127;-75
2024/01/23 04:58:04;;;;;;;27.58;5.80;;;7.30;99.90;;;;;;5075373;28;20510;-76
2024/01/23 05:00:30;;;;;;;29.88;7.38;;;7.30;99.90;;;;;;5057151;28;20037;-75
2024/01/23 05:02:56;;;;;;;29.02;7.25;;;7.40;99.90;;;;;;5075519;28;20033;-75
2024/01/23 05:05:21;;;;;;;23.52;4.93;;;7.30;99.90;;;;;;5073894;28;20044;-75
2024/01/23 05:07:47;;;;;;;20.25;5.30;;;7.50;99.90;;;;;;5073862;28;20051;-75
2024/01/23 05:10:13;;;;;;;26.75;5.60;;;7.40;99.90;;;;;;5074013;28;20048;-75
2024/01/23 05:12:38;;;;;;;21.83;4.82;;;7.40;99.90;;;;;;5073846;28;20045;-76
2024/01/23 05:15:04;;;;;;;18.33;4.75;;;7.40;99.90;;;;;;5056912;28;20044;-76
2024/01/23 05:17:31;;;;;;;22.45;4.95;;;7.40;99.90;;;;;;5073985;28;20040;-75
2024/01/23 05:19:57;;;;;;;27.23;7.20;;;7.40;99.90;;;;;;5074941;28;20032;-75
2024/01/23 05:22:23;;;;;;;25.38;6.72;;;7.40;99.90;;;;;;5073739;28;20124;-75
2024/01/23 05:24:49;;;;;;;23.77;5.03;;;7.40;99.90;;;;;;5074971;28;20048;-75
2024/01/23 05:27:14;;;;;;;26.23;5.80;;;7.40;99.90;;;;;;5074929;28;20078;-75
2024/01/23 05:29:40;;;;;;;26.77;5.13;;;7.40;99.90;;;;;;5073701;28;20036;-75
2024/01/23 05:32:06;;;;;;;25.23;5.32;;;7.40;99.90;;;;;;5074989;28;20036;-75
2024/01/23 05:34:32;;;;;;;24.77;5.45;;;7.30;99.90;;;;;;5073717;28;20044;-75
2024/01/23 05:36:58;;;;;;;24.17;6.63;;;7.30;99.90;;;;;;5073246;28;20041;-76
2024/01/23 05:39:24;;;;;;;17.98;4.35;;;7.30;99.90;;;;;;5074562;28;20036;-75
2024/01/23 05:41:50;;;;;;;22.00;6.88;;;7.40;99.90;;;;;;5074660;28;20075;-75
2024/01/23 05:44:15;;;;;;;23.42;5.97;;;7.40;99.90;;;;;;5073138;28;20048;-75
2024/01/23 05:46:41;;;;;;;25.77;5.60;;;7.40;99.90;;;;;;5073418;28;20036;-75
2024/01/23 05:49:06;;;;;;;53.55;7.40;;;7.30;99.90;;;;;;5074327;28;20093;-75
2024/01/23 05:51:32;;;;;;;19.98;4.70;;;7.40;99.90;;;;;;5073081;28;20055;-75
2024/01/23 05:53:58;;;;;;;27.67;6.18;;;7.40;99.90;;;;;;5073044;28;20036;-75
2024/01/23 05:56:24;;;;;;;29.08;5.18;;;7.40;99.90;;;;;;5073029;28;20460;-77
2024/01/23 05:58:50;;;;;;;19.92;4.63;;;7.40;99.90;;;;;;5075013;28;20121;-77
2024/01/23 06:01:15;;;;;;;24.15;5.15;;;7.40;99.90;;;;;;5077708;28;20124;-76
2024/01/23 06:03:41;;;;;;;30.05;6.47;;;7.40;99.90;;;;;;5072903;28;20036;-76
2024/01/23 06:06:07;;;;;;;33.55;5.90;;;7.40;99.90;;;;;;5072689;28;20492;-76
2024/01/23 06:08:32;;;;;;;21.52;5.65;;;7.20;99.90;;;;;;5072797;28;20389;-75
2024/01/23 06:10:58;;;;;;;33.58;4.97;;;7.30;99.90;;;;;;5074012;28;20144;-75
2024/01/23 06:13:24;;;;;;;25.30;5.65;;;7.30;99.90;;;;;;5072664;28;20040;-76
2024/01/23 06:15:49;;;;;;;31.98;6.65;;;7.20;99.90;;;;;;5072720;28;20133;-76
2024/01/23 06:18:15;;;;;;;30.83;7.32;;;7.20;99.90;;;;;;5072815;28;20077;-76
2024/01/23 06:20:42;;;;;;;30.90;5.95;;;7.20;99.90;;;;;;5072445;28;20123;-75
2024/01/23 06:23:08;;;;;;;28.42;5.03;;;7.10;99.90;;;;;;5073980;28;20045;-75
2024/01/23 06:25:34;;;;;;;26.00;4.93;;;7.00;99.90;;;;;;5072543;28;20047;-78
2024/01/23 06:28:00;;;;;;;33.22;5.72;;;7.00;99.90;;;;;;5076379;28;20063;-76
2024/01/23 06:30:25;;;;;;;25.23;5.95;;;7.00;99.90;;;;;;5072305;28;20036;-76
2024/01/23 06:32:51;;;;;;;35.05;6.38;;;6.90;99.90;;;;;;5072559;28;20130;-75
2024/01/23 06:35:16;;;;;;;28.00;6.82;;;7.00;99.90;;;;;;5072352;28;20044;-76
2024/01/23 06:37:42;;;;;;;25.33;5.32;;;7.00;99.90;;;;;;5073511;28;20028;-76
2024/01/23 06:40:09;;;;;;;31.40;6.72;;;6.90;99.90;;;;;;5072141;28;20609;-76
2024/01/23 06:42:35;;;;;;;23.50;7.00;;;6.80;99.90;;;;;;5072230;28;20076;-76
2024/01/23 06:45:02;;;;;;;34.00;7.05;;;6.80;99.90;;;;;;5055735;28;20095;-76
2024/01/23 06:47:28;;;;;;;20.45;5.38;;;6.80;99.90;;;;;;5072168;28;20045;-75
2024/01/23 06:49:53;;;;;;;31.95;5.93;;;6.70;99.90;;;;;;5072261;28;20044;-75
2024/01/23 06:52:19;;;;;;;27.23;5.60;;;6.70;99.90;;;;;;5072019;28;20512;-75
2024/01/23 06:54:44;;;;;;;29.85;6.50;;;6.60;99.90;;;;;;5072036;28;20083;-76
2024/01/23 06:57:10;;;;;;;19.33;6.30;;;6.70;99.90;;;;;;5071849;28;20055;-75
2024/01/23 06:59:36;;;;;;;21.45;5.63;;;6.60;99.90;;;;;;5072206;28;20380;-76
2024/01/23 07:02:01;;;;;;;34.78;6.90;;;6.60;99.90;;;;;;5072223;28;20058;-76
2024/01/23 07:04:27;;;;;;;37.25;6.85;;;6.70;99.90;;;;;;5072184;28;20029;-76
2024/01/23 07:06:53;;;;;;;32.50;6.50;;;6.60;99.90;;;;;;5071702;28;20036;-75
2024/01/23 07:09:18;;;;;;;33.67;5.43;;;6.60;99.90;;;;;;5071391;28;20127;-76
2024/01/23 07:11:46;;;;;;;28.05;5.28;;;6.50;99.90;;;;;;5072699;28;20075;-76
2024/01/23 07:14:12;;;;;;;29.23;6.82;;;6.50;99.90;;;;;;5071158;28;20404;-75
2024/01/23 07:16:38;;;;;;;24.20;5.25;;;6.40;99.90;;;;;;5071379;28;20043;-75
2024/01/23 07:19:03;;;;;;;27.67;7.07;;;6.40;99.90;;;;;;5071171;28;20036;-75
2024/01/23 07:21:30;;;;;;;29.23;6.50;;;6.40;99.90;;;;;;5071618;28;20029;-75
2024/01/23 07:23:55;;;;;;;27.85;5.95;;;6.40;99.90;;;;;;5054690;28;20496;-75
2024/01/23 07:26:21;;;;;;;28.10;7.13;;;6.40;99.90;;;;;;5070872;28;20488;-75
2024/01/23 07:28:46;;;;;;;34.20;5.95;;;6.40;99.90;;;;;;5072318;28;20041;-75
2024/01/23 07:31:12;;;;;;;26.65;5.93;;;6.30;99.90;;;;;;5072254;28;20083;-75
2024/01/23 07:33:39;;;;;;;27.40;5.78;;;6.40;99.90;;;;;;5071291;28;20037;-75
2024/01/23 07:36:05;;;;;;;30.88;6.38;;;6.40;99.90;;;;;;5071021;28;20565;-75
2024/01/23 07:38:30;;;;;;;27.17;7.13;;;6.20;99.90;;;;;;5070655;28;20054;-75
2024/01/23 07:40:56;;;;;;;17.50;4.88;;;6.20;99.90;;;;;;5070960;28;20066;-75
2024/01/23 07:43:25;;;;;;;22.92;6.55;;;6.30;99.90;;;;;;5070970;28;20048;-75
2024/01/23 07:45:51;;;;;;;26.65;5.88;;;6.30;99.90;;;;;;5071004;28;20475;-75
2024/01/23 07:48:17;;;;;;;43.40;6.32;;;6.30;99.90;;;;;;5072068;28;20043;-77
2024/01/23 07:50:42;;;;;;;33.85;5.88;;;6.30;99.90;;;;;;5073234;28;20040;-77
2024/01/23 07:53:08;;;;;;;29.35;6.43;;;6.30;99.90;;;;;;5071345;28;20055;-77
2024/01/23 07:55:34;;;;;;;31.17;7.93;;;6.20;99.90;;;;;;5073339;28;20456;-77
2024/01/23 07:57:59;;;;;;;36.90;7.10;;;6.20;99.90;;;;;;5071510;28;20029;-77
2024/01/23 08:00:25;;;;;;;32.58;7.10;;;6.20;99.90;;;;;;5071920;28;20033;-77
2024/01/23 08:02:50;;;;;;;26.20;6.43;;;6.30;99.90;;;;;;5072625;28;20496;-77
2024/01/23 08:05:18;;;;;;;29.90;7.47;;;6.20;99.90;;;;;;5071246;28;20044;-78
2024/01/23 08:07:43;;;;;;;24.88;5.40;;;6.30;99.90;;;;;;5075971;28;20496;-78
2024/01/23 08:10:09;;;;;;;35.70;6.88;;;6.20;99.90;;;;;;5076378;28;20044;-77
2024/01/23 08:12:36;;;;;;;36.08;5.80;;;6.30;99.90;;;;;;5072618;28;20052;-76
2024/01/23 08:15:02;;;;;;;29.85;5.80;;;6.30;99.90;;;;;;5073108;28;20056;-77
2024/01/23 08:17:27;;;;;;;30.50;6.78;;;6.30;99.90;;;;;;5071353;28;20040;-76
2024/01/23 08:19:53;;;;;;;27.35;6.82;;;6.20;99.90;;;;;;5071674;28;20032;-76
2024/01/23 08:22:19;;;;;;;39.08;6.93;;;6.30;99.90;;;;;;5071743;28;20112;-77
2024/01/23 08:24:45;;;;;;;34.50;8.02;;;6.20;99.90;;;;;;5070255;28;20120;-77
2024/01/23 08:27:10;;;;;;;33.63;7.43;;;6.20;99.90;;;;;;5070447;28;20036;-76
2024/01/23 08:29:36;;;;;;;33.20;5.95;;;6.20;99.90;;;;;;5072141;28;20040;-78
2024/01/23 08:32:03;;;;;;;26.48;5.63;;;6.20;99.90;;;;;;5073158;28;20040;-77
2024/01/23 08:34:29;;;;;;;35.40;6.60;;;6.40;99.90;;;;;;5075119;28;20075;-77
2024/01/23 08:36:54;;;;;;;29.73;6.53;;;6.30;99.90;;;;;;5070708;28;20121;-75
2024/01/23 08:39:20;;;;;;;29.73;5.70;;;6.30;99.90;;;;;;5071201;28;20096;-75
2024/01/23 08:41:46;;;;;;;30.15;7.43;;;6.40;99.90;;;;;;5070296;28;20492;-77
2024/01/23 08:44:11;;;;;;;33.08;8.60;;;6.40;99.90;;;;;;5074811;28;20072;-78
2024/01/23 08:46:37;;;;;;;34.17;6.22;;;6.50;99.90;;;;;;5075934;28;20074;-77
2024/01/23 08:49:03;;;;;;;23.98;6.03;;;6.40;99.90;;;;;;5076462;28;20047;-76
2024/01/23 08:51:29;;;;;;;32.70;7.22;;;6.40;99.90;;;;;;5071278;28;20040;-76
2024/01/23 08:53:55;;;;;;;32.38;8.32;;;6.50;99.90;;;;;;5070355;28;20028;-76
2024/01/23 08:56:21;;;;;;;29.65;7.07;;;6.40;99.90;;;;;;5071241;28;20080;-76
2024/01/23 08:58:50;;;;;;;35.35;6.32;;;6.40;99.90;;;;;;5075241;28;20067;-78
2024/01/23 09:01:16;;;;;;;30.52;4.90;;;6.60;99.90;;;;;;5075543;28;20412;-77
2024/01/23 09:03:43;;;;;;;32.92;7.28;;;6.60;99.90;;;;;;5078350;28;20064;-78
2024/01/23 09:06:10;;;;;;;26.17;5.72;;;6.60;99.90;;;;;;5076238;28;20523;-78
2024/01/23 09:08:42;;;;;;;25.88;5.88;;;6.60;99.90;;;;;;5076210;28;20040;-76
2024/01/23 09:11:08;;;;;;;25.77;6.13;;;6.70;99.90;;;;;;5073067;28;20131;-78
2024/01/23 09:13:34;;;;;;;33.40;6.38;;;6.70;99.90;;;;;;5069721;28;20064;-76
2024/01/23 09:16:00;;;;;;;31.50;6.45;;;6.70;99.90;;;;;;5067946;28;20102;-76
2024/01/23 09:18:29;;;;;;;40.10;6.72;;;6.70;99.90;;;;;;5070052;28;20028;-76
2024/01/23 09:20:56;;;;;;;43.60;8.10;;;6.80;99.90;;;;;;5064780;28;20115;-76
2024/01/23 09:23:22;;;;;;;31.55;6.50;;;6.70;99.90;;;;;;5072039;28;20045;-78
2024/01/23 09:25:49;;;;;;;27.33;5.15;;;6.80;99.90;;;;;;5071628;28;20408;-76
2024/01/23 09:28:15;;;;;;;30.02;5.43;;;6.70;99.90;;;;;;5074462;28;20048;-76
2024/01/23 09:30:40;;;;;;;40.08;6.70;;;6.80;99.90;;;;;;5070280;28;20576;-76
2024/01/23 09:33:06;;;;;;;33.20;7.63;;;6.80;99.90;;;;;;5071044;28;20037;-76
2024/01/23 09:35:33;;;;;;;32.88;6.18;;;6.80;99.90;;;;;;5053484;28;20497;-76
2024/01/23 09:37:58;;;;;;;28.08;5.28;;;6.80;99.90;;;;;;5056794;28;20047;-76
2024/01/23 09:40:24;;;;;;;30.90;8.25;;;7.00;99.90;;;;;;5074761;28;20032;-77
2024/01/23 09:42:56;;;;;;;23.38;6.00;;;7.00;99.90;;;;;;5074871;28;20110;-77
2024/01/23 09:45:28;;;;;;;30.73;5.95;;;6.90;99.90;;;;;;5073631;28;20044;-77
2024/01/23 09:47:54;;;;;;;30.38;6.22;;;7.00;99.90;;;;;;5073613;28;20045;-77
2024/01/23 09:50:25;;;;;;;25.35;4.93;;;7.00;99.90;;;;;;5073397;28;20044;-77
2024/01/23 09:52:51;;;;;;;25.58;6.43;;;7.00;99.90;;;;;;5073366;28;20040;-76
2024/01/23 09:55:18;;;;;;;20.40;6.45;;;7.10;99.90;;;;;;5072039;28;20044;-76
2024/01/23 09:57:44;;;;;;;32.08;6.15;;;7.00;99.90;;;;;;5072226;28;20050;-73
2024/01/23 10:00:13;;;;;;;34.58;7.05;;;7.10;99.90;;;;;;5064960;28;20032;-76
2024/01/23 10:02:40;;;;;;;28.63;6.78;;;7.20;99.90;;;;;;5064535;28;20041;-75
2024/01/23 10:05:11;;;;;;;34.88;7.38;;;7.20;99.90;;;;;;5071971;28;20096;-76
2024/01/23 10:07:38;;;;;;;26.90;6.97;;;7.20;99.90;;;;;;5069238;28;20036;-76
2024/01/23 10:10:13;;;;;;;31.17;5.70;;;7.10;99.90;;;;;;5072327;28;20037;-76
2024/01/23 10:12:44;;;;;;;37.78;6.25;;;7.20;99.90;;;;;;5072729;28;20047;-76
2024/01/23 10:15:11;;;;;;;24.98;5.53;;;7.20;99.90;;;;;;5072304;28;20454;-75
2024/01/23 10:17:37;;;;;;;28.38;6.75;;;7.20;99.90;;;;;;5055866;28;20519;-76
2024/01/23 10:20:04;;;;;;;26.25;7.03;;;7.30;99.90;;;;;;5073836;28;20078;-75
2024/01/23 10:22:29;;;;;;;28.75;7.20;;;7.40;99.90;;;;;;5072470;28;20043;-76
2024/01/23 10:24:55;;;;;;;34.92;7.18;;;7.40;99.90;;;;;;5073327;28;20032;-76
2024/01/23 10:27:21;;;;;;;23.88;6.25;;;7.40;99.90;;;;;;5072290;28;20093;-76
2024/01/23 10:29:46;;;;;;;26.90;6.70;;;7.50;99.90;;;;;;5072383;28;20075;-76
2024/01/23 10:32:12;;;;;;;34.83;5.53;;;7.40;99.90;;;;;;5072683;28;20119;-76
2024/01/23 10:34:38;;;;;;;29.95;7.30;;;7.50;99.90;;;;;;5072514;28;20062;-76
2024/01/23 10:37:03;;;;;;;20.98;5.45;;;7.50;99.90;;;;;;5072143;28;20040;-76
2024/01/23 10:39:29;;;;;;;27.10;5.38;;;7.60;99.90;;;;;;5073392;28;20040;-76
2024/01/23 10:41:56;;;;;;;38.97;6.28;;;7.70;99.90;;;;;;5055613;28;20111;-76
2024/01/23 10:44:23;;;;;;;26.25;5.60;;;7.70;99.90;;;;;;5072137;28;20037;-76
2024/01/23 10:46:50;;;;;;;28.45;6.40;;;7.70;99.90;;;;;;5071614;28;20407;-76
2024/01/23 10:49:16;;;;;;;30.77;5.97;;;7.70;99.90;;;;;;5071361;28;20043;-76
2024/01/23 10:51:47;;;;;;;31.70;6.75;;;7.80;99.90;;;;;;5071975;28;20041;-76
2024/01/23 10:54:28;;;;;;;24.55;5.22;;;7.80;99.90;;;;;;5071314;28;20123;-76
2024/01/23 10:56:59;;;;;;;24.92;5.32;;;7.80;99.90;;;;;;5069856;28;20500;-76
2024/01/23 10:59:29;;;;;;;36.70;5.90;;;7.80;99.90;;;;;;5055032;28;20079;-76
2024/01/23 11:02:13;;;;;;;29.60;5.68;;;7.90;99.90;;;;;;5071254;28;20040;-76
2024/01/23 11:04:39;;;;;;;32.45;6.07;;;7.80;99.90;;;;;;5086822;28;20292;-76
2024/01/23 11:07:15;;;;;;;27.50;5.75;;;7.90;99.90;;;;;;5070980;28;20051;-76
2024/01/23 11:10:05;;;;;;;30.45;6.47;;;7.90;99.90;;;;;;5072306;28;20040;-76
2024/01/23 11:12:48;;;;;;;23.02;5.28;;;7.90;99.90;;;;;;5070083;28;20036;-76
2024/01/23 11:15:15;;;;;;;36.60;5.97;;;7.90;99.90;;;;;;5069922;28;20036;-75
2024/01/23 11:17:41;;;;;;;20.02;6.28;;;8.00;99.90;;;;;;5072074;28;20036;-76
2024/01/23 11:20:09;;;;;;;21.40;5.85;;;8.00;99.90;;;;;;5071423;28;20035;-76
2024/01/23 11:22:36;;;;;;;31.58;5.05;;;8.10;99.90;;;;;;5071450;28;20040;-76
2024/01/23 11:25:03;;;;;;;25.25;6.50;;;8.00;99.90;;;;;;5070673;28;20029;-76
2024/01/23 11:27:30;;;;;;;33.13;6.97;;;8.00;99.90;;;;;;5071582;28;20507;-76
2024/01/23 11:29:58;;;;;;;25.55;5.07;;;8.00;99.90;;;;;;5069264;28;20040;-76
2024/01/23 11:32:26;;;;;;;23.17;6.22;;;8.00;99.90;;;;;;5072340;28;20053;-76
2024/01/23 11:35:03;;;;;;;25.85;6.38;;;8.00;99.90;;;;;;5070166;28;20127;-76
2024/01/23 11:37:38;;;;;;;25.52;6.07;;;8.00;99.90;;;;;;5070124;28;20710;-76
2024/01/23 11:40:04;;;;;;;22.98;5.95;;;8.00;99.90;;;;;;5071159;28;20044;-77
2024/01/23 11:42:43;;;;;;;21.38;4.70;;;8.00;99.90;;;;;;5072109;28;20058;-76
2024/01/23 11:45:29;;;;;;;23.17;3.80;;;7.90;99.90;;;;;;5070695;28;20075;-76
2024/01/23 11:47:59;;;;;;;27.17;6.00;;;8.00;99.90;;;;;;5070903;28;20472;-76
2024/01/23 11:50:27;;;;;;;33.05;5.15;;;8.00;99.90;;;;;;5070957;28;20091;-77
2024/01/23 11:52:54;;;;;;;24.98;4.70;;;8.00;99.90;;;;;;5070590;28;20033;-76
2024/01/23 11:55:21;;;;;;;23.80;4.85;;;8.10;99.90;;;;;;5071933;28;20396;-77
2024/01/23 11:57:54;;;;;;;22.23;5.30;;;8.10;99.90;;;;;;5070804;28;20029;-76
2024/01/23 12:00:20;;;;;;;;;;;8.10;99.90;;;;;;5070922;28;20040;-76
2024/01/23 12:02:47;;;;;;;24.45;5.18;;;8.00;99.90;;;;;;5072065;28;20280;-77
2024/01/23 12:05:13;;;;;;;25.50;6.18;;;8.10;99.90;;;;;;5071352;28;20040;-76
2024/01/23 12:07:41;;;;;;;16.38;4.18;;;8.00;99.90;;;;;;5070275;28;20577;-76
2024/01/23 12:10:08;;;;;;;31.42;6.10;;;7.90;99.90;;;;;;5071690;28;20128;-76
2024/01/23 12:12:34;;;;;;;29.55;5.50;;;7.90;99.90;;;;;;5070969;28;20068;-77
2024/01/23 12:15:00;;;;;;;27.30;5.88;;;7.90;99.90;;;;;;5071418;28;20071;-76
2024/01/23 12:17:26;;;;;;;24.58;5.30;;;7.90;99.90;;;;;;5053786;28;20028;-76
2024/01/23 12:19:51;;;;;;;22.20;5.40;;;7.90;99.90;;;;;;5070632;28;20043;-77
2024/01/23 12:22:18;;;;;;;22.08;4.45;;;8.00;99.90;;;;;;5071840;28;20407;-76
2024/01/23 12:24:44;;;;;;;23.38;5.97;;;8.00;99.90;;;;;;5071320;28;20032;-76
2024/01/23 12:27:11;;;;;;;32.13;5.40;;;8.00;99.90;;;;;;5070913;28;20052;-77
2024/01/23 12:29:38;;;;;;;29.83;5.50;;;8.00;99.90;;;;;;5074797;28;20086;-78
2024/01/23 12:32:04;;;;;;;30.83;6.18;;;8.00;99.90;;;;;;5073500;28;20045;-78
2024/01/23 12:34:30;;;;;;;41.33;7.55;;;8.00;99.90;;;;;;5070946;28;20040;-77
2024/01/23 12:37:00;;;;;;;17.63;4.85;;;8.00;99.90;;;;;;5053143;28;20036;-76
2024/01/23 12:39:29;;;;;;;32.03;7.07;;;8.00;99.90;;;;;;5071175;28;20040;-76
2024/01/23 12:41:58;;;;;;;22.35;5.70;;;8.10;99.90;;;;;;5070771;28;20044;-75
2024/01/23 12:44:24;;;;;;;26.92;6.25;;;8.10;99.90;;;;;;5066852;28;20032;-76